SAS1647 EKCH-EDDH
Flight info
| Callsign | SAS1647 |
|---|---|
| Flight time | 0h 33m |
| Altitude | 24000 |
| Route | NEXEN T503 MICOS N850 BOGMU BOGMU3P |
| Aircraft | A321/M-SDE3FGIJ1RWXY/LB1 |
Departure
| Time | 2026-04-23 17:56 |
|---|---|
| Airport | Copenhagen Kastrup Airport (EKCH) |
Arrival
| Time | 2026-04-23 18:29 |
|---|---|
| Airport | Hamburg Helmut Schmidt Airport (EDDH) |
| Time | Latitude | Longitude | Altitude | Speed | Heading |
|---|---|---|---|---|---|
| 2026-04-23 17:24 | 55.62695 | 12.64592 | 17 ft | 0 kts | 282° |
| 2026-04-23 17:39 | 55.62694 | 12.64593 | 17 ft | 1 kts | 282° |
| 2026-04-23 17:39 | 55.62690 | 12.64636 | 20 ft | 4 kts | 281° |
| 2026-04-23 17:40 | 55.62683 | 12.64676 | 18 ft | 4 kts | 329° |
| 2026-04-23 17:40 | 55.62667 | 12.64677 | 21 ft | 4 kts | 11° |
| 2026-04-23 17:40 | 55.62641 | 12.64667 | 19 ft | 4 kts | 11° |
| 2026-04-23 17:40 | 55.62630 | 12.64663 | 17 ft | 0 kts | 12° |
| 2026-04-23 17:47 | 55.62631 | 12.64663 | 17 ft | 0 kts | 12° |
| 2026-04-23 17:48 | 55.62646 | 12.64669 | 20 ft | 4 kts | 14° |
| 2026-04-23 17:48 | 55.62667 | 12.64716 | 20 ft | 6 kts | 79° |
| 2026-04-23 17:48 | 55.62638 | 12.64776 | 17 ft | 8 kts | 181° |
| 2026-04-23 17:48 | 55.62567 | 12.64770 | 17 ft | 12 kts | 180° |
| 2026-04-23 17:49 | 55.62472 | 12.64776 | 17 ft | 15 kts | 176° |
| 2026-04-23 17:49 | 55.62354 | 12.64783 | 17 ft | 18 kts | 178° |
| 2026-04-23 17:49 | 55.62229 | 12.64784 | 17 ft | 18 kts | 193° |
| 2026-04-23 17:49 | 55.62113 | 12.64665 | 18 ft | 21 kts | 212° |
| 2026-04-23 17:50 | 55.61991 | 12.64528 | 18 ft | 17 kts | 208° |
| 2026-04-23 17:50 | 55.61736 | 12.64561 | 19 ft | 16 kts | 169° |
| 2026-04-23 17:50 | 55.61625 | 12.64511 | 18 ft | 18 kts | 213° |
| 2026-04-23 17:51 | 55.61509 | 12.64377 | 17 ft | 21 kts | 212° |
| 2026-04-23 17:51 | 55.61376 | 12.64225 | 18 ft | 24 kts | 213° |
| 2026-04-23 17:51 | 55.61072 | 12.63875 | 18 ft | 26 kts | 213° |
| 2026-04-23 17:52 | 55.60933 | 12.63716 | 17 ft | 23 kts | 213° |
| 2026-04-23 17:52 | 55.60777 | 12.63607 | 17 ft | 10 kts | 143° |
| 2026-04-23 17:52 | 55.60743 | 12.63675 | 17 ft | 0 kts | 131° |
| 2026-04-23 17:54 | 55.60733 | 12.63694 | 18 ft | 3 kts | 131° |
| 2026-04-23 17:55 | 55.60677 | 12.63812 | 18 ft | 8 kts | 123° |
| 2026-04-23 17:55 | 55.60696 | 12.63907 | 19 ft | 11 kts | 37° |
| 2026-04-23 17:55 | 55.60832 | 12.64112 | 19 ft | 59 kts | 41° |
| 2026-04-23 17:56 | 55.61335 | 12.64890 | 19 ft | 130 kts | 41° |
| 2026-04-23 17:56 | 55.62994 | 12.67445 | 990 ft | 162 kts | 38° |
| 2026-04-23 17:56 | 55.63857 | 12.68797 | 1576 ft | 172 kts | 37° |
| 2026-04-23 17:57 | 55.64817 | 12.70283 | 1906 ft | 194 kts | 36° |
| 2026-04-23 17:57 | 55.65901 | 12.71924 | 2176 ft | 217 kts | 35° |
| 2026-04-23 17:57 | 55.68187 | 12.76141 | 3074 ft | 263 kts | 63° |
| 2026-04-23 17:58 | 55.68465 | 12.79404 | 3809 ft | 279 kts | 96° |
| 2026-04-23 17:58 | 55.67678 | 12.82567 | 4575 ft | 289 kts | 130° |
| 2026-04-23 17:58 | 55.66026 | 12.84553 | 5311 ft | 292 kts | 165° |
| 2026-04-23 17:58 | 55.64030 | 12.84703 | 6021 ft | 289 kts | 199° |
| 2026-04-23 17:59 | 55.62275 | 12.83098 | 6687 ft | 286 kts | 221° |
| 2026-04-23 17:59 | 55.60717 | 12.80895 | 7360 ft | 288 kts | 226° |
| 2026-04-23 17:59 | 55.59207 | 12.78532 | 8065 ft | 292 kts | 227° |
| 2026-04-23 17:59 | 55.57685 | 12.76119 | 8741 ft | 297 kts | 227° |
| 2026-04-23 18:00 | 55.56654 | 12.74513 | 9200 ft | 299 kts | 227° |
| 2026-04-23 18:00 | 55.54518 | 12.71287 | 10116 ft | 306 kts | 226° |
| 2026-04-23 18:00 | 55.52843 | 12.68822 | 10416 ft | 324 kts | 225° |
| 2026-04-23 18:00 | 55.51042 | 12.66199 | 10560 ft | 346 kts | 224° |
| 2026-04-23 18:01 | 55.49147 | 12.63472 | 10965 ft | 356 kts | 224° |
| 2026-04-23 18:01 | 55.47201 | 12.60710 | 11534 ft | 361 kts | 224° |
| 2026-04-23 18:01 | 55.45231 | 12.57928 | 12142 ft | 365 kts | 224° |
| 2026-04-23 18:01 | 55.43242 | 12.55119 | 12759 ft | 368 kts | 224° |
| 2026-04-23 18:02 | 55.41917 | 12.53247 | 13151 ft | 371 kts | 224° |
| 2026-04-23 18:02 | 55.39212 | 12.49415 | 13954 ft | 376 kts | 224° |
| 2026-04-23 18:02 | 55.37169 | 12.46513 | 14490 ft | 379 kts | 224° |
| 2026-04-23 18:02 | 55.35110 | 12.43592 | 15051 ft | 382 kts | 223° |
| 2026-04-23 18:03 | 55.33037 | 12.40654 | 15615 ft | 384 kts | 223° |
| 2026-04-23 18:03 | 55.30950 | 12.37704 | 16176 ft | 387 kts | 223° |
| 2026-04-23 18:03 | 55.28841 | 12.34731 | 16734 ft | 389 kts | 223° |
| 2026-04-23 18:03 | 55.26726 | 12.31753 | 17281 ft | 392 kts | 223° |
| 2026-04-23 18:04 | 55.24623 | 12.28797 | 17807 ft | 394 kts | 223° |
| 2026-04-23 18:04 | 55.22447 | 12.25740 | 18336 ft | 397 kts | 223° |
| 2026-04-23 18:04 | 55.20311 | 12.22744 | 18797 ft | 400 kts | 223° |
| 2026-04-23 18:04 | 55.18109 | 12.19661 | 19257 ft | 402 kts | 223° |
| 2026-04-23 18:05 | 55.15915 | 12.16595 | 19718 ft | 404 kts | 223° |
| 2026-04-23 18:05 | 55.13712 | 12.13522 | 20183 ft | 406 kts | 222° |
| 2026-04-23 18:05 | 55.11504 | 12.10445 | 20631 ft | 408 kts | 222° |
| 2026-04-23 18:05 | 55.09280 | 12.07344 | 21063 ft | 410 kts | 222° |
| 2026-04-23 18:06 | 55.07041 | 12.04227 | 21497 ft | 413 kts | 222° |
| 2026-04-23 18:06 | 55.04788 | 12.01094 | 21941 ft | 415 kts | 223° |
| 2026-04-23 18:06 | 55.02516 | 11.97939 | 22119 ft | 417 kts | 223° |
| 2026-04-23 18:06 | 55.00251 | 11.94799 | 22142 ft | 417 kts | 222° |
| 2026-04-23 18:07 | 54.97979 | 11.91663 | 22147 ft | 417 kts | 222° |
| 2026-04-23 18:07 | 54.95706 | 11.88533 | 22145 ft | 417 kts | 222° |
| 2026-04-23 18:07 | 54.93432 | 11.85404 | 22143 ft | 416 kts | 222° |
| 2026-04-23 18:07 | 54.91165 | 11.82285 | 22151 ft | 416 kts | 222° |
| 2026-04-23 18:08 | 54.89661 | 11.80217 | 22155 ft | 416 kts | 222° |
| 2026-04-23 18:08 | 54.86662 | 11.76104 | 22153 ft | 406 kts | 222° |
| 2026-04-23 18:08 | 54.84449 | 11.73081 | 22154 ft | 404 kts | 222° |
| 2026-04-23 18:08 | 54.82272 | 11.70107 | 22153 ft | 403 kts | 222° |
| 2026-04-23 18:09 | 54.80073 | 11.67097 | 22159 ft | 403 kts | 222° |
| 2026-04-23 18:09 | 54.77843 | 11.64047 | 22158 ft | 403 kts | 222° |
| 2026-04-23 18:09 | 54.75672 | 11.61078 | 22161 ft | 403 kts | 222° |
| 2026-04-23 18:09 | 54.73466 | 11.58069 | 22161 ft | 403 kts | 222° |
| 2026-04-23 18:10 | 54.71235 | 11.55039 | 22158 ft | 403 kts | 222° |
| 2026-04-23 18:10 | 54.69057 | 11.52090 | 22157 ft | 403 kts | 222° |
| 2026-04-23 18:10 | 54.66848 | 11.49105 | 22167 ft | 403 kts | 222° |
| 2026-04-23 18:10 | 54.64640 | 11.46121 | 22165 ft | 403 kts | 222° |
| 2026-04-23 18:11 | 54.62433 | 11.43139 | 22167 ft | 403 kts | 222° |
| 2026-04-23 18:11 | 54.60226 | 11.40158 | 22175 ft | 403 kts | 222° |
| 2026-04-23 18:11 | 54.58017 | 11.37180 | 22172 ft | 403 kts | 222° |
| 2026-04-23 18:11 | 54.55813 | 11.34217 | 22150 ft | 403 kts | 221° |
| 2026-04-23 18:12 | 54.53611 | 11.31240 | 22162 ft | 401 kts | 224° |
| 2026-04-23 18:12 | 54.51684 | 11.27904 | 21948 ft | 387 kts | 231° |
| 2026-04-23 18:12 | 54.49898 | 11.24534 | 21681 ft | 376 kts | 232° |
| 2026-04-23 18:12 | 54.48161 | 11.21244 | 21412 ft | 370 kts | 232° |
| 2026-04-23 18:13 | 54.46374 | 11.17841 | 21182 ft | 395 kts | 231° |
| 2026-04-23 18:13 | 54.44492 | 11.14253 | 20929 ft | 410 kts | 231° |
| 2026-04-23 18:13 | 54.42574 | 11.10617 | 20687 ft | 413 kts | 231° |
| 2026-04-23 18:13 | 54.40639 | 11.06972 | 20441 ft | 412 kts | 231° |
| 2026-04-23 18:14 | 54.39360 | 11.04574 | 20281 ft | 412 kts | 231° |
| 2026-04-23 18:14 | 54.36773 | 10.99735 | 19958 ft | 410 kts | 231° |
| 2026-04-23 18:14 | 54.34849 | 10.96139 | 19717 ft | 409 kts | 231° |
| 2026-04-23 18:14 | 54.32932 | 10.92564 | 19483 ft | 407 kts | 230° |
| 2026-04-23 18:15 | 54.31006 | 10.89014 | 19251 ft | 406 kts | 230° |
| 2026-04-23 18:15 | 54.29727 | 10.86675 | 19087 ft | 405 kts | 230° |
| 2026-04-23 18:15 | 54.27774 | 10.83117 | 18860 ft | 404 kts | 230° |
| 2026-04-23 18:15 | 54.25876 | 10.79669 | 18632 ft | 402 kts | 229° |
| 2026-04-23 18:16 | 54.23938 | 10.76155 | 18385 ft | 401 kts | 229° |
| 2026-04-23 18:16 | 54.22028 | 10.72697 | 18119 ft | 399 kts | 229° |
| 2026-04-23 18:16 | 54.20131 | 10.69262 | 17788 ft | 394 kts | 229° |
| 2026-04-23 18:17 | 54.16458 | 10.62616 | 17162 ft | 371 kts | 230° |
| 2026-04-23 18:17 | 54.14720 | 10.59470 | 16851 ft | 361 kts | 230° |
| 2026-04-23 18:17 | 54.13001 | 10.56351 | 16266 ft | 360 kts | 230° |
| 2026-04-23 18:17 | 54.11291 | 10.53251 | 15734 ft | 359 kts | 230° |
| 2026-04-23 18:18 | 54.09607 | 10.50210 | 15216 ft | 356 kts | 230° |
| 2026-04-23 18:18 | 54.07909 | 10.47148 | 14716 ft | 354 kts | 230° |
| 2026-04-23 18:18 | 54.06230 | 10.44093 | 14217 ft | 352 kts | 231° |
| 2026-04-23 18:18 | 54.04566 | 10.41047 | 13682 ft | 350 kts | 231° |
| 2026-04-23 18:19 | 54.02916 | 10.38020 | 13152 ft | 347 kts | 231° |
| 2026-04-23 18:19 | 54.01262 | 10.34990 | 12639 ft | 344 kts | 231° |
| 2026-04-23 18:19 | 53.99637 | 10.32027 | 12135 ft | 341 kts | 231° |
| 2026-04-23 18:19 | 53.98045 | 10.29130 | 11650 ft | 338 kts | 231° |
| 2026-04-23 18:20 | 53.96483 | 10.26172 | 11164 ft | 334 kts | 233° |
| 2026-04-23 18:20 | 53.94798 | 10.23456 | 10691 ft | 337 kts | 216° |
| 2026-04-23 18:20 | 53.92629 | 10.21938 | 10227 ft | 341 kts | 192° |
| 2026-04-23 18:20 | 53.90261 | 10.21934 | 9736 ft | 343 kts | 169° |
| 2026-04-23 18:21 | 53.88068 | 10.23449 | 9253 ft | 341 kts | 144° |
| 2026-04-23 18:21 | 53.86404 | 10.26222 | 8768 ft | 335 kts | 120° |
| 2026-04-23 18:21 | 53.85524 | 10.29778 | 8284 ft | 324 kts | 95° |
| 2026-04-23 18:21 | 53.85380 | 10.33538 | 7797 ft | 319 kts | 85° |
| 2026-04-23 18:22 | 53.85301 | 10.37278 | 7323 ft | 320 kts | 95° |
| 2026-04-23 18:22 | 53.84508 | 10.40806 | 6857 ft | 323 kts | 120° |
| 2026-04-23 18:22 | 53.82955 | 10.43492 | 6384 ft | 319 kts | 146° |
| 2026-04-23 18:22 | 53.80942 | 10.44816 | 6062 ft | 304 kts | 174° |
| 2026-04-23 18:23 | 53.78928 | 10.44575 | 5847 ft | 281 kts | 202° |
| 2026-04-23 18:23 | 53.76525 | 10.40561 | 5470 ft | 226 kts | 264° |
| 2026-04-23 18:24 | 53.76247 | 10.35566 | 4908 ft | 210 kts | 274° |
| 2026-04-23 18:24 | 53.76173 | 10.33130 | 4400 ft | 206 kts | 274° |
| 2026-04-23 18:24 | 53.76100 | 10.30731 | 3918 ft | 203 kts | 274° |
| 2026-04-23 18:25 | 53.75974 | 10.26057 | 3030 ft | 194 kts | 274° |
| 2026-04-23 18:25 | 53.75560 | 10.23841 | 2998 ft | 211 kts | 239° |
| 2026-04-23 18:25 | 53.74506 | 10.22097 | 2999 ft | 207 kts | 234° |
| 2026-04-23 18:25 | 53.73602 | 10.20350 | 3000 ft | 192 kts | 238° |
| 2026-04-23 18:26 | 53.72765 | 10.18633 | 2889 ft | 187 kts | 239° |
| 2026-04-23 18:26 | 53.71943 | 10.16946 | 2673 ft | 185 kts | 239° |
| 2026-04-23 18:26 | 53.71123 | 10.15270 | 2438 ft | 185 kts | 239° |
| 2026-04-23 18:26 | 53.70306 | 10.13603 | 2167 ft | 184 kts | 239° |
| 2026-04-23 18:27 | 53.69492 | 10.11944 | 1918 ft | 182 kts | 239° |
| 2026-04-23 18:27 | 53.68690 | 10.10313 | 1680 ft | 180 kts | 238° |
| 2026-04-23 18:27 | 53.67914 | 10.08738 | 1427 ft | 167 kts | 238° |
| 2026-04-23 18:27 | 53.67204 | 10.07299 | 1189 ft | 153 kts | 239° |
| 2026-04-23 18:28 | 53.66543 | 10.05953 | 1000 ft | 146 kts | 238° |
| 2026-04-23 18:28 | 53.65907 | 10.04659 | 796 ft | 141 kts | 237° |
| 2026-04-23 18:28 | 53.65290 | 10.03405 | 615 ft | 139 kts | 234° |
| 2026-04-23 18:28 | 53.64689 | 10.02140 | 429 ft | 135 kts | 239° |
| 2026-04-23 18:29 | 53.64062 | 10.00900 | 247 ft | 139 kts | 236° |
| 2026-04-23 18:29 | 53.63453 | 9.99673 | 49 ft | 136 kts | 239° |
| 2026-04-23 18:29 | 53.62975 | 9.98663 | 45 ft | 71 kts | 228° |
| 2026-04-23 18:29 | 53.62834 | 9.98406 | 44 ft | 6 kts | 226° |
| 2026-04-23 18:30 | 53.62725 | 9.98383 | 45 ft | 20 kts | 141° |
| 2026-04-23 18:30 | 53.62670 | 9.98479 | 47 ft | 9 kts | 94° |
| 2026-04-23 18:30 | 53.62704 | 9.98580 | 47 ft | 11 kts | 49° |
| 2026-04-23 18:30 | 53.62758 | 9.98686 | 47 ft | 13 kts | 50° |
| 2026-04-23 18:31 | 53.62817 | 9.98806 | 47 ft | 14 kts | 52° |
| 2026-04-23 18:31 | 53.62882 | 9.98940 | 47 ft | 15 kts | 50° |
| 2026-04-23 18:31 | 53.62923 | 9.99023 | 47 ft | 8 kts | 50° |
| 2026-04-23 18:31 | 53.62949 | 9.99076 | 47 ft | 0 kts | 50° |
| 2026-04-23 18:32 | 53.62954 | 9.99088 | 47 ft | 2 kts | 50° |
| 2026-04-23 18:32 | 53.62970 | 9.99119 | 47 ft | 5 kts | 50° |
| 2026-04-23 18:32 | 53.62994 | 9.99169 | 47 ft | 7 kts | 50° |
| 2026-04-23 18:32 | 53.63028 | 9.99237 | 47 ft | 8 kts | 51° |
| 2026-04-23 18:33 | 53.63033 | 9.99248 | 47 ft | 0 kts | 51° |
| 2026-04-23 18:33 | 53.63035 | 9.99252 | 47 ft | 1 kts | 51° |
| 2026-04-23 18:33 | 53.63045 | 9.99274 | 47 ft | 4 kts | 51° |
| 2026-04-23 18:34 | 53.63065 | 9.99321 | 47 ft | 6 kts | 54° |
| 2026-04-23 18:34 | 53.63077 | 9.99349 | 47 ft | 0 kts | 55° |
| 2026-04-23 18:35 | 53.63086 | 9.99371 | 47 ft | 4 kts | 56° |
| 2026-04-23 18:35 | 53.63113 | 9.99440 | 46 ft | 10 kts | 55° |
| 2026-04-23 18:35 | 53.63166 | 9.99558 | 46 ft | 15 kts | 49° |
| 2026-04-23 18:35 | 53.63220 | 9.99667 | 49 ft | 0 kts | 45° |
| 2026-04-23 18:37 | 53.63220 | 9.99668 | 48 ft | 1 kts | 45° |
| 2026-04-23 18:37 | 53.63235 | 9.99694 | 46 ft | 5 kts | 45° |
| 2026-04-23 18:37 | 53.63273 | 9.99758 | 48 ft | 10 kts | 46° |
| 2026-04-23 18:37 | 53.63327 | 9.99860 | 48 ft | 14 kts | 50° |
| 2026-04-23 18:38 | 53.63398 | 10.00006 | 48 ft | 18 kts | 51° |
| 2026-04-23 18:38 | 53.63406 | 10.00141 | 48 ft | 10 kts | 133° |
| 2026-04-23 18:38 | 53.63381 | 10.00167 | 48 ft | 5 kts | 141° |
| 2026-04-23 18:38 | 53.63368 | 10.00231 | 48 ft | 7 kts | 90° |
| 2026-04-23 18:39 | 53.63372 | 10.00323 | 48 ft | 6 kts | 86° |
| 2026-04-23 18:39 | 53.63373 | 10.00337 | 48 ft | 0 kts | 87° |